createdAt,value
2019-01-19T09:16:58.608Z,81.74
2019-01-19T09:17:58.706Z,80.38
2019-01-19T09:18:58.556Z,80.80
2019-01-19T09:19:58.545Z,81.49
2019-01-19T09:20:58.567Z,80.69
2019-01-19T09:21:58.523Z,79.86
2019-01-19T09:27:29.516Z,80.62
2019-01-19T09:31:20.715Z,78.91
2019-01-19T09:32:20.705Z,78.70
2019-01-19T09:38:32.782Z,78.28
2019-01-19T09:39:32.748Z,79.33
2019-01-19T09:40:32.739Z,79.96
2019-01-19T09:41:32.774Z,79.22
2019-01-19T09:51:31.702Z,78.81
2019-01-19T09:52:31.666Z,79.64
2019-01-19T10:01:30.114Z,79.85
2019-01-19T10:02:30.079Z,80.69
2019-01-19T10:03:10.874Z,79.85
2019-01-19T10:04:10.848Z,79.33
2019-01-19T10:11:01.457Z,79.33
2019-01-19T10:12:01.421Z,80.16
2019-01-19T10:37:27.247Z,70.91
2019-01-19T10:38:27.170Z,71.91
2019-01-19T10:39:27.155Z,73.72
2019-01-19T10:40:27.067Z,74.14
2019-01-19T10:41:26.983Z,75.08
2019-01-19T10:42:26.906Z,76.37
2019-01-19T10:43:26.819Z,77.14
2019-01-19T10:44:27.030Z,76.51
2019-01-19T10:45:26.815Z,76.82
2019-01-19T10:46:26.595Z,76.20
2019-01-19T10:47:27.576Z,76.20
2019-01-19T10:48:26.379Z,80.79
2019-01-19T10:49:26.287Z,77.03
2019-01-19T10:50:26.280Z,76.82
2019-01-19T10:51:26.096Z,76.72
2019-01-19T10:52:25.985Z,76.51
2019-01-19T10:53:25.876Z,76.61
2019-01-19T10:54:25.775Z,74.84
2019-01-19T10:55:25.697Z,76.20
2019-01-19T10:56:25.624Z,76.93
2019-01-19T10:57:25.471Z,76.40
2019-01-19T10:58:25.536Z,75.88
2019-01-19T10:59:25.267Z,76.51
2019-01-19T11:00:25.190Z,75.67
2019-01-19T11:01:25.088Z,74.73
2019-01-19T11:02:24.984Z,75.95
2019-01-19T11:03:24.875Z,74.80
2019-01-19T11:04:24.763Z,74.80
2019-01-19T11:05:24.686Z,74.38
2019-01-19T11:06:24.558Z,74.49
2019-01-19T11:07:24.462Z,74.18
2019-01-19T11:08:24.349Z,74.69
2019-01-19T11:09:24.254Z,74.80
2019-01-19T11:10:24.168Z,74.91
2019-01-19T11:11:24.050Z,74.87
2019-01-19T11:12:23.939Z,74.56
2019-01-19T11:13:23.884Z,73.83
2019-01-19T11:14:23.735Z,74.04
2019-01-19T11:15:23.658Z,74.14
2019-01-19T11:16:23.571Z,74.14
2019-01-19T11:17:23.514Z,73.72
2019-01-19T11:18:23.339Z,73.72
2019-01-19T11:19:23.243Z,72.99
2019-01-19T11:20:23.134Z,72.64
2019-01-19T11:21:23.053Z,72.85
2019-01-19T11:22:22.918Z,71.81
2019-01-19T11:23:22.815Z,71.04
2019-01-19T11:24:22.713Z,71.39
2019-01-19T11:25:22.607Z,71.60
2019-01-19T11:26:22.515Z,71.19
2019-01-19T11:27:22.395Z,71.08
2019-01-19T11:28:22.267Z,72.02
2019-01-19T11:29:22.172Z,72.54
2019-01-19T11:30:22.053Z,72.13
2019-01-19T11:31:21.972Z,71.04
2019-01-19T11:32:21.837Z,71.15
2019-01-19T11:33:21.750Z,70.00
2019-01-19T11:34:21.637Z,68.93
2019-01-19T11:35:21.521Z,69.56
2019-01-19T11:36:21.440Z,68.72
2019-01-19T11:37:21.320Z,70.18
2019-01-19T11:38:21.205Z,70.07
2019-01-19T11:39:21.106Z,69.48
2019-01-19T11:40:20.995Z,69.97
2019-01-19T11:41:20.906Z,70.11
2019-01-19T11:42:20.789Z,69.90
2019-01-19T11:43:20.664Z,69.07
2019-01-19T11:44:20.591Z,69.38
2019-01-19T11:45:20.457Z,68.93
2019-01-19T11:46:20.374Z,70.00
2019-01-19T11:47:20.251Z,69.07
2019-01-19T11:48:20.173Z,69.13
2019-01-19T11:49:20.047Z,69.03
2019-01-19T11:50:19.970Z,68.17
2019-01-19T11:51:19.835Z,67.54
2019-01-19T11:52:19.746Z,67.75
2019-01-19T11:53:19.588Z,67.96
2019-01-19T11:54:19.505Z,68.79
2019-01-19T11:55:19.431Z,67.75
2019-01-19T11:56:19.287Z,68.59
2019-01-19T11:57:19.151Z,67.65
2019-01-19T11:58:19.042Z,67.75
2019-01-19T11:59:18.938Z,67.54
2019-01-19T12:00:18.828Z,66.71
2019-01-19T12:01:18.714Z,67.75
2019-01-19T12:02:18.630Z,67.75
2019-01-19T12:03:18.493Z,67.65
2019-01-19T12:04:18.375Z,67.54
2019-01-19T12:05:18.262Z,67.33
2019-01-19T12:06:18.150Z,65.98
2019-01-19T12:07:18.486Z,65.46
2019-01-19T12:08:19.727Z,66.05
2019-01-19T12:09:17.807Z,67.02
2019-01-19T12:10:17.693Z,65.14
2019-01-19T12:11:17.579Z,65.25
2019-01-19T12:12:17.488Z,65.22
2019-01-19T12:13:17.353Z,65.43
2019-01-19T12:14:17.235Z,65.53
2019-01-19T12:15:17.144Z,65.64
2019-01-19T12:16:17.000Z,64.70
2019-01-19T12:17:16.921Z,65.01
2019-01-19T12:18:16.772Z,64.98
2019-01-19T12:19:17.411Z,65.53
2019-01-19T12:20:16.535Z,65.64
2019-01-19T12:21:16.417Z,64.28
2019-01-19T12:22:16.359Z,64.67
2019-01-19T12:23:16.188Z,65.50
2019-01-19T12:24:16.074Z,65.01
2019-01-19T12:25:15.978Z,65.53
2019-01-19T12:26:15.868Z,64.80
2019-01-19T12:27:15.759Z,64.18
2019-01-19T12:28:15.619Z,63.84
2019-01-19T12:29:15.504Z,63.21
2019-01-19T12:30:15.388Z,64.77
2019-01-19T12:31:15.272Z,65.40
2019-01-19T12:32:15.178Z,64.77
2019-01-19T12:33:15.035Z,64.98
2019-01-19T12:34:14.956Z,64.56
2019-01-19T12:35:14.800Z,64.36
2019-01-19T12:36:14.693Z,64.87
2019-01-19T12:37:14.653Z,65.19
2019-01-19T12:38:14.454Z,64.01
2019-01-19T12:39:14.406Z,64.12
2019-01-19T12:40:14.225Z,64.15
2019-01-19T12:41:14.200Z,64.36
2019-01-19T12:42:13.992Z,64.87
2019-01-19T12:43:13.893Z,64.64
2019-01-19T12:44:13.754Z,64.22
2019-01-19T12:45:13.639Z,62.76
2019-01-19T12:46:13.512Z,63.91
2019-01-19T12:47:13.397Z,64.95
2019-01-19T12:48:13.305Z,63.88
2019-01-19T12:49:13.269Z,64.32
2019-01-19T12:50:13.034Z,63.78
2019-01-19T12:51:13.005Z,64.22
2019-01-19T12:52:12.814Z,64.22
2019-01-19T12:53:12.716Z,63.78
2019-01-19T12:54:12.565Z,64.51
2019-01-19T12:55:12.443Z,64.19
2019-01-19T12:56:12.322Z,62.95
2019-01-19T12:57:12.218Z,63.57
2019-01-19T12:58:12.129Z,65.26
2019-01-19T12:59:11.962Z,63.70
2019-01-19T13:00:11.848Z,60.76
2019-01-19T13:01:11.732Z,62.01
2019-01-19T13:02:11.589Z,61.59
2019-01-19T13:03:11.533Z,61.90
2019-01-19T13:04:11.336Z,61.38
2019-01-19T13:05:11.213Z,61.90
2019-01-19T13:06:11.086Z,62.74
2019-01-19T13:07:11.124Z,63.08
2019-01-19T13:08:10.861Z,62.74
2019-01-19T13:09:12.553Z,62.63
2019-01-19T13:10:10.580Z,60.76
2019-01-19T13:11:10.444Z,61.49
2019-01-19T13:12:10.339Z,61.38
2019-01-19T13:13:10.207Z,61.59
2019-01-19T13:14:10.057Z,60.97
2019-01-19T13:15:10.003Z,60.76
2019-01-19T13:16:09.801Z,62.74
2019-01-19T13:17:09.676Z,60.45
2019-01-19T13:18:09.572Z,62.01
2019-01-19T13:19:09.426Z,61.69
2019-01-19T13:20:09.338Z,60.97
2019-01-19T13:21:09.171Z,58.58
2019-01-19T13:22:09.065Z,58.58
2019-01-19T13:23:08.919Z,58.23
2019-01-19T13:24:08.819Z,58.97
2019-01-19T13:25:08.681Z,57.20
2019-01-19T13:26:08.605Z,56.99
2019-01-19T13:27:08.465Z,57.20
2019-01-19T13:28:08.292Z,57.30
2019-01-19T13:29:08.191Z,56.78
2019-01-19T13:30:08.093Z,56.78
2019-01-19T13:31:08.938Z,56.88
2019-01-19T13:32:07.818Z,55.53
2019-01-19T13:33:07.668Z,55.01
2019-01-19T13:34:07.579Z,54.91
2019-01-19T13:35:07.425Z,55.11
2019-01-19T13:36:07.297Z,55.63
2019-01-19T13:37:07.168Z,55.22
2019-01-19T13:38:07.045Z,55.11
2019-01-19T13:39:06.946Z,54.57
2019-01-19T13:40:06.797Z,55.22
2019-01-19T13:41:06.731Z,55.40
2019-01-19T13:42:06.574Z,54.47
2019-01-19T13:43:06.434Z,55.19
2019-01-19T13:44:06.362Z,55.19
2019-01-19T13:45:06.223Z,55.19
2019-01-19T13:46:06.058Z,54.68
2019-01-19T13:47:05.932Z,54.57
2019-01-19T13:48:05.816Z,55.40
2019-01-19T13:49:05.685Z,55.09
2019-01-19T13:50:05.615Z,55.51
2019-01-19T13:51:05.428Z,56.96
2019-01-19T13:52:05.318Z,56.99
2019-01-19T13:53:05.176Z,58.03
2019-01-19T13:54:05.057Z,57.09
2019-01-19T13:55:04.957Z,57.09
2019-01-19T13:56:04.826Z,57.09
2019-01-19T13:57:04.723Z,56.76
2019-01-19T13:58:04.542Z,58.54
2019-01-19T13:59:04.421Z,57.90
2019-01-19T14:00:04.319Z,56.47
2019-01-19T14:01:04.203Z,56.76
2019-01-19T14:02:04.071Z,58.65
2019-01-19T14:03:03.933Z,56.88
2019-01-19T14:04:03.772Z,58.03
2019-01-19T14:05:03.664Z,57.20
2019-01-19T14:06:03.518Z,58.73
2019-01-19T14:07:03.414Z,56.65
2019-01-19T14:08:03.254Z,55.71
2019-01-19T14:09:03.125Z,56.99
2019-01-19T14:10:03.025Z,57.51
2019-01-19T14:11:03.138Z,57.20
2019-01-19T14:12:02.753Z,57.20
2019-01-19T14:13:02.665Z,55.01
2019-01-19T14:14:02.485Z,54.91
2019-01-19T14:15:02.358Z,57.07
2019-01-19T14:16:02.249Z,57.20
2019-01-19T14:17:02.096Z,58.86
2019-01-19T14:18:02.006Z,58.13
2019-01-19T14:19:01.840Z,58.34
2019-01-19T14:20:01.711Z,57.82
2019-01-19T14:21:01.602Z,58.76
2019-01-19T14:22:01.451Z,58.13
2019-01-19T14:23:01.316Z,57.20
2019-01-19T14:24:01.240Z,57.20
2019-01-19T14:25:01.061Z,57.40
2019-01-19T14:26:00.956Z,57.40
2019-01-19T14:27:00.803Z,58.78
2019-01-19T14:28:00.671Z,58.58
2019-01-19T14:29:00.539Z,57.12
2019-01-19T14:30:00.406Z,60.14
2019-01-19T14:31:00.300Z,61.28
2019-01-19T14:32:00.143Z,61.90
2019-01-19T14:33:00.119Z,60.97
2019-01-19T14:34:00.049Z,60.27
2019-01-19T14:34:59.769Z,61.52
2019-01-19T14:35:59.654Z,61.62
2019-01-19T14:36:59.594Z,61.52
2019-01-19T14:37:59.386Z,63.08
2019-01-19T14:38:59.261Z,62.66
2019-01-19T14:39:59.173Z,62.95
2019-01-19T14:40:58.995Z,61.69
2019-01-19T14:41:58.893Z,62.74
2019-01-19T14:42:58.769Z,63.57
2019-01-19T14:43:58.725Z,62.32
2019-01-19T14:44:58.493Z,61.52
2019-01-19T14:45:58.380Z,63.70
2019-01-19T14:46:58.357Z,64.12
2019-01-19T14:47:58.168Z,63.53
2019-01-19T14:48:57.972Z,61.86
2019-01-19T14:49:57.837Z,62.69
2019-01-19T14:50:57.700Z,63.13
2019-01-19T14:51:57.584Z,63.45
2019-01-19T14:52:57.438Z,64.49
2019-01-19T14:53:57.351Z,65.33
2019-01-19T14:54:57.187Z,66.82
2019-01-19T14:55:57.092Z,65.14
2019-01-19T14:56:56.919Z,65.77
2019-01-19T14:57:56.810Z,66.39
2019-01-19T14:58:56.686Z,66.92
2019-01-19T14:59:56.525Z,66.92
2019-01-19T15:00:56.396Z,66.29
2019-01-19T15:01:56.262Z,65.67
2019-01-19T15:02:56.240Z,65.38
2019-01-19T15:03:55.998Z,66.53
2019-01-19T15:04:55.867Z,66.74
2019-01-19T15:05:56.151Z,67.68
2019-01-19T15:06:55.613Z,65.14
2019-01-19T15:07:55.523Z,65.56
2019-01-19T15:08:55.364Z,64.83
2019-01-19T15:09:55.237Z,63.68
2019-01-19T15:10:55.207Z,64.62
2019-01-19T15:11:54.990Z,65.46
2019-01-19T15:12:54.871Z,65.70
2019-01-19T15:13:54.720Z,65.04
2019-01-19T15:14:54.591Z,65.67
2019-01-19T15:15:54.464Z,65.28
2019-01-19T15:16:54.382Z,66.85
2019-01-19T15:17:54.258Z,67.05
2019-01-19T15:18:54.091Z,65.52
2019-01-19T15:19:53.972Z,64.89
2019-01-19T15:20:53.837Z,65.00
2019-01-19T15:21:53.723Z,66.77
2019-01-19T15:22:53.612Z,65.44
2019-01-19T15:23:53.468Z,65.10
2019-01-19T15:24:53.360Z,65.41
2019-01-19T15:25:53.277Z,65.62
2019-01-19T15:26:53.113Z,64.89
2019-01-19T15:27:52.976Z,65.73
2019-01-19T15:28:52.871Z,64.58
2019-01-19T15:29:52.730Z,64.03
2019-01-19T15:30:52.711Z,65.48
2019-01-19T15:31:52.486Z,63.95
2019-01-19T15:32:52.362Z,65.10
2019-01-19T15:33:52.262Z,65.00
2019-01-19T15:34:52.115Z,64.26
2019-01-19T15:35:51.988Z,65.62
2019-01-19T15:36:51.879Z,65.34
2019-01-19T15:37:51.742Z,64.92
2019-01-19T15:38:51.651Z,65.10
2019-01-19T15:39:51.520Z,64.40
2019-01-19T15:40:51.511Z,64.50
2019-01-19T15:41:51.302Z,65.03
2019-01-19T15:42:51.147Z,65.23
2019-01-19T15:43:51.090Z,65.58
2019-01-19T15:44:50.908Z,65.58
2019-01-19T15:45:50.794Z,65.06
2019-01-19T15:46:50.807Z,65.47
2019-01-19T15:47:50.601Z,66.44
2019-01-19T15:48:50.479Z,65.50
2019-01-19T15:49:50.320Z,65.95
2019-01-19T15:50:50.202Z,67.00
2019-01-19T15:51:50.083Z,66.58
2019-01-19T15:52:49.994Z,67.73
2019-01-19T15:53:49.924Z,67.41
2019-01-19T15:54:49.765Z,67.97
2019-01-19T15:55:49.660Z,67.55
2019-01-19T15:56:49.502Z,67.79
2019-01-19T15:57:49.403Z,67.58
2019-01-19T15:58:49.293Z,68.00
2019-01-19T15:59:49.187Z,68.00
2019-01-19T16:00:49.072Z,69.15
2019-01-19T16:01:48.943Z,68.31
2019-01-19T16:02:48.826Z,68.31
2019-01-19T16:03:48.750Z,68.31
2019-01-19T16:04:48.624Z,69.39
2019-01-19T16:05:49.510Z,69.60
2019-01-19T16:06:48.543Z,69.07
2019-01-19T16:07:49.174Z,70.12
2019-01-19T16:08:48.184Z,69.18
2019-01-19T16:09:48.048Z,69.29
2019-01-19T16:10:47.950Z,68.76
2019-01-19T16:11:47.829Z,68.48
2019-01-19T16:12:47.704Z,68.79
2019-01-19T16:13:47.587Z,68.48
2019-01-19T16:14:47.475Z,69.00
2019-01-19T16:15:47.395Z,68.79
2019-01-19T16:16:47.250Z,69.32
2019-01-19T16:17:47.135Z,69.98
2019-01-19T16:18:47.014Z,72.18
2019-01-19T16:19:46.923Z,70.92
2019-01-19T16:20:46.839Z,70.85
2019-01-19T16:21:46.670Z,71.23
2019-01-19T16:22:46.560Z,72.21
2019-01-19T16:23:46.443Z,71.44
2019-01-19T16:24:46.324Z,71.06
2019-01-19T16:25:46.204Z,71.13
2019-01-19T16:26:46.115Z,71.23
2019-01-19T16:27:46.002Z,72.07
2019-01-19T16:28:45.866Z,72.18
2019-01-19T16:29:45.757Z,72.07
2019-01-19T16:30:45.647Z,72.18
2019-01-19T16:31:45.574Z,71.34
2019-01-19T16:32:45.422Z,70.81
2019-01-19T16:33:45.315Z,71.97
2019-01-19T16:34:45.206Z,72.07
2019-01-19T16:35:45.093Z,70.92
2019-01-19T16:36:45.005Z,72.70
2019-01-19T16:37:44.871Z,72.42
2019-01-19T16:38:44.764Z,72.84
2019-01-19T16:39:44.672Z,72.11
2019-01-19T16:40:44.551Z,70.95
2019-01-19T16:41:44.508Z,71.37
2019-01-19T16:42:44.331Z,71.37
2019-01-19T16:43:44.223Z,72.42
2019-01-19T16:44:44.119Z,72.77
2019-01-19T16:45:44.027Z,72.98
2019-01-19T16:46:44.935Z,73.61
2019-01-19T16:47:43.832Z,73.19
2019-01-19T16:48:43.745Z,73.29
2019-01-19T16:49:43.614Z,72.49
2019-01-19T16:50:43.523Z,72.69
2019-01-19T16:51:43.428Z,72.69
2019-01-19T16:52:43.337Z,73.85
2019-01-19T16:53:43.215Z,75.11
2019-01-19T16:54:43.116Z,75.25
2019-01-19T16:55:43.041Z,74.69
2019-01-19T16:56:42.906Z,74.48
2019-01-19T16:57:42.852Z,74.58
2019-01-19T16:58:42.707Z,73.64
2019-01-19T16:59:42.608Z,72.49
2019-01-19T17:00:42.514Z,72.49
2019-01-19T17:01:42.412Z,73.11
2019-01-19T17:58:22.999Z,55.99
2019-01-19T17:59:22.963Z,36.90
2019-01-19T18:00:23.072Z,37.29
2019-01-19T18:01:22.941Z,37.21
2019-01-19T18:02:22.928Z,41.10
2019-01-19T18:03:22.916Z,43.48
2019-01-19T18:04:22.906Z,46.14
2019-01-19T18:05:22.918Z,49.43
2019-01-19T18:06:22.884Z,49.21
2019-01-19T18:07:22.873Z,52.40
2019-01-19T18:08:22.861Z,53.80
2019-01-19T18:09:22.851Z,54.88
2019-01-19T18:10:22.865Z,56.68
2019-01-19T18:11:22.829Z,56.91
2019-01-19T18:12:22.818Z,58.81
2019-01-19T18:13:22.807Z,59.15
2019-01-19T18:14:22.797Z,55.43
2019-01-19T18:15:22.813Z,57.54
2019-01-19T18:16:22.775Z,61.08
2019-01-19T18:17:22.762Z,59.72
2019-01-19T18:18:22.752Z,58.92
2019-01-19T18:19:22.744Z,62.36
2019-01-19T18:20:22.732Z,62.88
2019-01-19T18:21:22.743Z,62.77
2019-01-19T18:22:22.708Z,61.32
2019-01-19T18:23:22.698Z,64.86
2019-01-19T18:24:26.039Z,63.12
2019-01-19T18:25:22.675Z,65.62
2019-01-19T18:26:22.688Z,63.01
2019-01-19T18:27:22.653Z,58.84
2019-01-19T18:28:22.642Z,58.76
2019-01-19T18:29:22.636Z,63.32
2019-01-19T18:30:22.624Z,63.98
2019-01-19T18:31:22.635Z,64.71
2019-01-19T18:32:22.598Z,65.44
2019-01-19T18:33:22.590Z,65.89
2019-01-19T18:34:22.577Z,64.74
2019-01-19T18:35:22.566Z,65.47
2019-01-19T18:36:22.579Z,64.74
2019-01-19T18:37:22.546Z,65.92
2019-01-19T18:38:22.533Z,65.58
2019-01-19T18:39:22.522Z,67.69
2019-01-19T18:40:22.512Z,67.91
2019-01-19T18:41:22.525Z,68.01
2019-01-19T18:42:22.503Z,67.10
2019-01-19T18:43:22.479Z,67.10
2019-01-19T18:44:22.495Z,68.04
2019-01-19T18:45:22.487Z,67.41
2019-01-19T18:46:22.469Z,67.62
2019-01-19T18:47:22.464Z,68.04
2019-01-19T18:48:22.423Z,67.86
2019-01-19T18:49:22.413Z,67.65
2019-01-19T18:50:22.402Z,68.91
2019-01-19T18:51:22.415Z,67.58
2019-01-19T18:52:22.388Z,69.57
2019-01-19T18:53:22.377Z,69.04
2019-01-19T18:54:22.359Z,68.87
2019-01-19T18:55:22.346Z,69.36
2019-01-19T18:56:22.338Z,70.20
2019-01-19T18:57:22.348Z,69.15
2019-01-19T18:58:22.314Z,69.70
2019-01-19T18:59:22.302Z,70.93
2019-01-19T19:00:22.292Z,70.12
2019-01-19T19:01:22.280Z,70.54
2019-01-19T19:02:22.293Z,68.97
2019-01-19T19:03:22.258Z,70.75
2019-01-19T19:04:22.248Z,71.48
2019-01-19T19:05:22.236Z,70.86
2019-01-19T19:06:22.226Z,70.65
2019-01-19T19:07:22.238Z,69.29
2019-01-19T19:08:22.206Z,70.78
2019-01-19T19:09:22.193Z,70.68
2019-01-19T19:10:22.182Z,72.04
2019-01-19T19:11:22.172Z,71.10
2019-01-19T19:12:22.164Z,70.68
2019-01-19T19:13:22.175Z,71.41
2019-01-19T19:14:22.140Z,71.31
2019-01-19T19:15:22.126Z,72.35
2019-01-19T19:16:22.115Z,70.89
2019-01-19T19:17:22.107Z,72.42
2019-01-19T19:18:22.120Z,72.56
2019-01-19T19:19:22.082Z,72.46
2019-01-19T19:20:22.071Z,72.56
2019-01-19T19:21:22.061Z,72.88
2019-01-19T19:22:22.051Z,72.88
2019-01-19T19:23:22.066Z,72.67
2019-01-19T19:24:22.028Z,71.41
2019-01-19T19:25:22.017Z,72.77
2019-01-19T19:26:22.008Z,72.56
2019-01-19T19:27:21.995Z,72.14
2019-01-19T19:28:22.009Z,73.30
2019-01-19T19:29:21.973Z,73.09
2019-01-19T19:30:21.962Z,72.04
2019-01-19T19:31:21.951Z,72.67
2019-01-19T19:32:21.941Z,72.46
2019-01-19T19:33:21.932Z,72.56
2019-01-19T19:34:21.942Z,72.35
2019-01-19T19:35:21.908Z,73.19
2019-01-19T19:36:21.899Z,72.67
2019-01-19T19:37:21.886Z,72.35
2019-01-19T19:38:21.876Z,73.40
2019-01-19T19:39:21.892Z,73.19
2019-01-19T19:40:21.851Z,73.09
2019-01-19T19:41:21.840Z,72.14
2019-01-19T19:42:21.830Z,72.46
2019-01-19T19:43:21.822Z,73.82
2019-01-19T19:44:21.831Z,73.61
2019-01-19T19:45:21.796Z,72.98
2019-01-19T19:46:21.787Z,73.22
2019-01-19T19:47:21.773Z,73.12
2019-01-19T19:48:21.768Z,72.60
2019-01-19T19:49:21.777Z,72.28
2019-01-19T19:50:21.742Z,72.39
2019-01-19T19:51:21.729Z,72.81
2019-01-19T19:52:27.782Z,72.49
2019-01-19T19:53:22.707Z,72.70
2019-01-19T19:54:21.721Z,73.22
2019-01-19T19:55:21.688Z,72.91
2019-01-19T19:56:21.673Z,73.96
2019-01-19T19:57:21.662Z,73.85
2019-01-19T19:58:21.655Z,73.12
2019-01-19T19:59:21.664Z,71.97
2019-01-19T20:00:21.629Z,72.91
2019-01-19T20:01:21.617Z,73.02
2019-01-19T20:02:21.608Z,74.06
2019-01-19T20:03:21.594Z,72.70
2019-01-19T20:04:21.608Z,72.60
2019-01-19T20:05:21.584Z,72.67
2019-01-19T20:06:21.562Z,72.77
2019-01-19T20:07:21.550Z,73.19
2019-01-19T20:08:21.539Z,72.88
2019-01-19T20:09:21.526Z,72.67
2019-01-19T20:10:21.541Z,72.88
2019-01-19T20:11:21.514Z,72.77
2019-01-19T20:12:21.493Z,72.35
2019-01-19T20:13:21.482Z,72.04
2019-01-19T20:14:21.472Z,72.46
2019-01-19T20:15:21.485Z,73.19
2019-01-19T20:16:21.449Z,73.30
2019-01-19T20:17:21.439Z,73.19
2019-01-19T20:18:21.427Z,73.93
2019-01-19T20:19:21.417Z,74.87
2019-01-19T20:20:21.431Z,74.76
2019-01-19T20:21:21.397Z,74.38
2019-01-19T20:22:21.383Z,74.90
2019-01-19T20:23:21.372Z,74.27
2019-01-19T20:24:21.359Z,74.06
2019-01-19T20:25:21.371Z,74.93
2019-01-19T20:26:21.337Z,74.90
2019-01-19T20:27:21.326Z,75.21
2019-01-19T20:28:21.315Z,75.04
2019-01-19T20:29:21.305Z,74.27
2019-01-19T20:30:21.316Z,74.93
2019-01-19T20:31:21.281Z,74.41
2019-01-19T20:32:21.275Z,75.46
2019-01-19T20:33:21.261Z,75.98
2019-01-19T20:34:21.258Z,75.49
2019-01-19T20:35:21.238Z,75.70
2019-01-19T20:36:21.251Z,75.07
2019-01-19T20:37:21.215Z,76.09
2019-01-19T20:38:21.205Z,75.92
2019-01-19T20:39:21.192Z,75.29
2019-01-19T20:40:24.507Z,75.81
2019-01-19T20:41:21.193Z,76.23
2019-01-19T20:42:21.162Z,76.75
2019-01-19T20:43:21.152Z,76.12
2019-01-19T20:44:21.140Z,75.92
2019-01-19T20:45:21.133Z,76.54
2019-01-19T20:46:21.142Z,76.43
2019-01-19T20:47:21.104Z,75.60
2019-01-19T20:48:21.117Z,76.68
2019-01-19T20:49:21.083Z,76.75
2019-01-19T20:50:21.076Z,76.68
2019-01-19T20:51:21.085Z,76.54
2019-01-19T20:52:21.048Z,76.33
2019-01-19T20:53:21.039Z,76.89
2019-01-19T20:54:21.029Z,76.96
2019-01-19T20:55:21.016Z,77.28
2019-01-19T20:56:21.030Z,76.65
2019-01-19T20:57:20.996Z,77.17
2019-01-19T20:58:20.987Z,76.96
2019-01-19T20:59:20.972Z,76.05
2019-01-19T21:00:20.967Z,76.43
2019-01-19T21:01:20.976Z,76.89
2019-01-19T21:02:20.939Z,76.79
2019-01-19T21:03:20.932Z,76.26
2019-01-19T21:04:20.917Z,77.00
2019-01-19T21:05:20.910Z,77.10
2019-01-19T21:06:20.923Z,76.79
2019-01-19T21:07:20.886Z,77.10
2019-01-19T21:08:20.874Z,77.62
2019-01-19T21:09:20.863Z,77.00
2019-01-19T21:10:20.855Z,77.00
2019-01-19T21:11:20.870Z,77.73
2019-01-19T21:12:20.831Z,76.79
2019-01-19T21:13:20.824Z,76.37
2019-01-19T21:14:20.817Z,77.10
2019-01-19T21:15:20.801Z,77.42
2019-01-19T21:16:20.790Z,77.00
2019-01-19T21:17:20.803Z,77.21
2019-01-19T21:18:20.767Z,77.31
2019-01-19T21:19:20.757Z,77.42
2019-01-19T21:20:20.746Z,77.42
2019-01-19T21:21:20.738Z,78.36
2019-01-19T21:22:20.749Z,78.47
2019-01-19T21:23:20.715Z,78.61
2019-01-19T21:24:20.704Z,78.08
2019-01-19T21:25:20.693Z,77.98
2019-01-19T21:26:20.682Z,77.34
2019-01-19T21:27:20.695Z,77.56
2019-01-19T21:28:20.660Z,77.56
2019-01-19T21:29:20.650Z,77.24
2019-01-19T21:30:20.641Z,77.56
2019-01-19T21:31:20.628Z,77.56
2019-01-19T21:32:20.643Z,77.56
2019-01-19T21:33:20.607Z,77.76
2019-01-19T21:34:20.596Z,78.71
2019-01-19T21:35:20.585Z,78.71
2019-01-19T21:36:20.579Z,78.50
2019-01-19T21:37:20.589Z,78.61
2019-01-19T21:38:20.554Z,78.81
2019-01-19T21:39:20.543Z,78.50
2019-01-19T21:40:20.531Z,78.53
2019-01-19T21:41:20.523Z,78.50
2019-01-19T21:42:20.534Z,78.96
2019-01-19T21:43:20.498Z,78.50
2019-01-19T21:44:20.488Z,78.50
2019-01-19T21:45:20.477Z,78.81
2019-01-19T21:46:20.467Z,78.92
2019-01-19T21:47:20.477Z,79.13
2019-01-19T21:48:20.444Z,79.38
2019-01-19T21:49:20.435Z,79.69
2019-01-19T21:50:20.428Z,79.17
2019-01-19T21:51:20.408Z,78.64
2019-01-19T21:52:20.422Z,78.85
2019-01-19T21:53:20.387Z,78.64
2019-01-19T21:54:20.377Z,78.64
2019-01-19T21:55:20.366Z,78.96
2019-01-19T21:56:20.354Z,79.48
2019-01-19T21:57:20.345Z,79.06
2019-01-19T21:58:20.356Z,80.22
2019-01-19T21:59:20.322Z,79.58
2019-01-19T22:00:21.904Z,79.48
2019-01-19T22:01:20.302Z,79.58
2019-01-19T22:02:20.313Z,79.38
2019-01-19T22:03:20.279Z,78.85
2019-01-19T22:04:20.276Z,79.52
2019-01-19T22:05:20.259Z,78.89
2019-01-19T22:06:20.250Z,79.90
2019-01-19T22:07:20.239Z,79.21
2019-01-19T22:08:20.252Z,79.62
2019-01-19T22:09:20.217Z,79.80
2019-01-19T22:10:20.206Z,80.46
2019-01-19T22:11:20.194Z,80.15
2019-01-19T22:12:20.184Z,79.73
2019-01-19T22:13:20.194Z,79.41
2019-01-19T22:14:20.162Z,79.73
2019-01-19T22:15:20.150Z,78.99
2019-01-19T22:16:20.138Z,79.73
2019-01-19T22:17:20.130Z,79.94
2019-01-19T22:18:20.148Z,80.15
2019-01-19T22:19:20.107Z,79.41
2019-01-19T22:20:20.095Z,79.62
2019-01-19T22:21:20.089Z,80.15
2019-01-19T22:22:20.074Z,79.80
2019-01-19T22:23:20.086Z,79.52
2019-01-19T22:24:20.052Z,79.21
2019-01-19T22:25:20.041Z,79.52
2019-01-19T22:26:20.033Z,78.99
2019-01-19T22:27:20.020Z,79.73
2019-01-19T22:28:20.035Z,79.31
2019-01-19T22:29:19.998Z,79.41
2019-01-19T22:30:19.987Z,79.73
2019-01-19T22:31:19.976Z,79.52
2019-01-19T22:32:19.966Z,80.46
2019-01-19T22:33:19.989Z,80.04
2019-01-19T22:34:19.945Z,79.94
2019-01-19T22:35:19.935Z,79.41
2019-01-19T22:36:19.923Z,79.73
2019-01-19T22:37:19.913Z,78.89
2019-01-19T22:38:19.925Z,79.41
2019-01-19T22:39:19.891Z,80.15
2019-01-19T22:40:19.881Z,79.24
2019-01-19T22:41:19.870Z,78.92
2019-01-19T22:42:19.860Z,79.31
2019-01-19T22:43:19.852Z,79.10
2019-01-19T22:44:19.863Z,78.92
2019-01-19T22:45:19.828Z,79.66
2019-01-19T22:46:19.820Z,80.18
2019-01-19T22:47:19.808Z,79.87
2019-01-19T22:48:19.796Z,80.29
2019-01-19T22:49:19.808Z,80.29
2019-01-19T22:50:19.775Z,80.82
2019-01-19T22:51:19.764Z,80.29
2019-01-19T22:52:19.753Z,80.46
2019-01-19T22:53:19.743Z,79.31
2019-01-19T22:54:19.756Z,79.77
2019-01-19T22:55:19.725Z,79.66
2019-01-19T22:56:19.709Z,78.82
2019-01-19T22:57:19.702Z,78.61
2019-01-19T22:58:19.688Z,79.35
2019-01-19T22:59:19.702Z,80.40
2019-01-19T23:00:19.667Z,79.55
2019-01-19T23:01:19.665Z,79.77
2019-01-19T23:02:19.646Z,79.03
2019-01-19T23:03:19.636Z,79.77
2019-01-19T23:04:19.651Z,79.24
2019-01-19T23:05:19.614Z,79.03
2019-01-19T23:06:19.604Z,79.13
2019-01-19T23:07:19.592Z,78.71
2019-01-19T23:08:19.581Z,79.66
2019-01-19T23:09:19.599Z,80.29
2019-01-19T23:10:19.561Z,80.29
2019-01-19T23:11:19.550Z,80.40
2019-01-19T23:12:19.540Z,79.77
2019-01-19T23:13:19.529Z,79.45
2019-01-19T23:14:19.542Z,79.87
2019-01-19T23:15:19.508Z,79.45
2019-01-19T23:16:19.496Z,79.55
2019-01-19T23:17:19.486Z,78.89
2019-01-19T23:18:19.474Z,78.89
2019-01-19T23:19:19.490Z,78.67
2019-01-19T23:20:19.454Z,78.89
2019-01-19T23:21:19.443Z,78.57
2019-01-19T23:22:19.432Z,78.82
2019-01-19T23:23:19.423Z,78.89
2019-01-19T23:24:19.419Z,78.71
2019-01-19T23:25:19.424Z,78.82
2019-01-19T23:26:19.388Z,78.61
2019-01-19T23:27:19.379Z,78.92
2019-01-19T23:28:19.369Z,79.87
2019-01-19T23:29:19.360Z,79.55
2019-01-19T23:30:19.378Z,79.45
2019-01-19T23:31:19.337Z,79.97
2019-01-19T23:32:19.326Z,79.27
2019-01-19T23:33:19.316Z,79.97
2019-01-19T23:34:19.306Z,79.66
2019-01-19T23:35:19.320Z,79.45
2019-01-19T23:36:19.283Z,79.35
2019-01-19T23:37:19.272Z,79.13
2019-01-19T23:38:19.262Z,79.27
2019-01-19T23:39:19.250Z,79.03
2019-01-19T23:40:19.264Z,79.13
2019-01-19T23:41:19.230Z,79.03
2019-01-19T23:42:19.219Z,79.13
2019-01-19T23:43:19.208Z,79.27
2019-01-19T23:44:19.197Z,79.59
2019-01-19T23:45:19.211Z,79.06
2019-01-19T23:46:19.179Z,78.75
2019-01-19T23:47:19.165Z,78.96
2019-01-19T23:48:19.154Z,78.89
2019-01-19T23:49:19.143Z,79.59
2019-01-19T23:50:19.156Z,79.59
2019-01-19T23:51:19.122Z,79.73
2019-01-19T23:52:19.111Z,79.49
2019-01-19T23:53:19.100Z,80.43
2019-01-19T23:54:19.089Z,79.69
2019-01-19T23:55:19.105Z,79.59
2019-01-19T23:56:19.069Z,79.41
2019-01-19T23:57:19.059Z,79.21
2019-01-19T23:58:19.047Z,79.83
2019-01-19T23:59:19.035Z,79.27
